sensor_id;sensor_type;location;lat;lon;timestamp;P1;durP1;ratioP1;P2;durP2;ratioP2
7501;SDS011;3792;47.740;7.606;2023-07-31T00:02:02;2.70;;;1.70;;
7501;SDS011;3792;47.740;7.606;2023-07-31T00:04:30;2.53;;;1.67;;
7501;SDS011;3792;47.740;7.606;2023-07-31T00:06:57;2.20;;;1.87;;
7501;SDS011;3792;47.740;7.606;2023-07-31T00:09:24;2.93;;;1.73;;
7501;SDS011;3792;47.740;7.606;2023-07-31T00:11:51;2.97;;;1.97;;
7501;SDS011;3792;47.740;7.606;2023-07-31T00:14:19;4.07;;;2.10;;
7501;SDS011;3792;47.740;7.606;2023-07-31T00:16:46;5.03;;;1.93;;
7501;SDS011;3792;47.740;7.606;2023-07-31T00:19:13;3.00;;;1.60;;
7501;SDS011;3792;47.740;7.606;2023-07-31T00:21:40;1.80;;;1.70;;
7501;SDS011;3792;47.740;7.606;2023-07-31T00:24:07;3.70;;;1.83;;
7501;SDS011;3792;47.740;7.606;2023-07-31T00:26:35;3.03;;;1.77;;
7501;SDS011;3792;47.740;7.606;2023-07-31T00:29:02;1.67;;;1.57;;
7501;SDS011;3792;47.740;7.606;2023-07-31T00:31:30;7.50;;;2.17;;
7501;SDS011;3792;47.740;7.606;2023-07-31T00:33:57;3.07;;;2.00;;
7501;SDS011;3792;47.740;7.606;2023-07-31T00:36:24;3.97;;;1.93;;
7501;SDS011;3792;47.740;7.606;2023-07-31T00:38:51;4.50;;;1.50;;
7501;SDS011;3792;47.740;7.606;2023-07-31T00:41:18;4.50;;;2.00;;
7501;SDS011;3792;47.740;7.606;2023-07-31T00:43:45;1.93;;;1.80;;
7501;SDS011;3792;47.740;7.606;2023-07-31T00:46:12;2.77;;;1.80;;
7501;SDS011;3792;47.740;7.606;2023-07-31T00:48:41;6.83;;;1.93;;
7501;SDS011;3792;47.740;7.606;2023-07-31T00:51:08;2.13;;;1.87;;
7501;SDS011;3792;47.740;7.606;2023-07-31T00:53:36;2.47;;;1.60;;
7501;SDS011;3792;47.740;7.606;2023-07-31T00:56:04;3.70;;;2.00;;
7501;SDS011;3792;47.740;7.606;2023-07-31T00:58:31;3.30;;;2.00;;
7501;SDS011;3792;47.740;7.606;2023-07-31T01:00:58;4.33;;;1.87;;
7501;SDS011;3792;47.740;7.606;2023-07-31T01:03:25;2.73;;;2.10;;
7501;SDS011;3792;47.740;7.606;2023-07-31T01:05:56;3.83;;;1.70;;
7501;SDS011;3792;47.740;7.606;2023-07-31T01:08:33;4.83;;;1.80;;
7501;SDS011;3792;47.740;7.606;2023-07-31T01:11:08;2.40;;;2.17;;
7501;SDS011;3792;47.740;7.606;2023-07-31T01:13:42;3.43;;;1.60;;
7501;SDS011;3792;47.740;7.606;2023-07-31T01:16:10;2.40;;;1.77;;
7501;SDS011;3792;47.740;7.606;2023-07-31T01:18:37;3.90;;;1.70;;
7501;SDS011;3792;47.740;7.606;2023-07-31T01:21:11;1.67;;;1.57;;
7501;SDS011;3792;47.740;7.606;2023-07-31T01:24:07;2.23;;;1.70;;
7501;SDS011;3792;47.740;7.606;2023-07-31T01:26:47;2.90;;;1.70;;
7501;SDS011;3792;47.740;7.606;2023-07-31T01:29:20;2.30;;;2.03;;
7501;SDS011;3792;47.740;7.606;2023-07-31T01:31:55;2.07;;;1.73;;
7501;SDS011;3792;47.740;7.606;2023-07-31T01:34:26;3.93;;;2.10;;
7501;SDS011;3792;47.740;7.606;2023-07-31T01:36:54;4.07;;;1.90;;
7501;SDS011;3792;47.740;7.606;2023-07-31T01:39:23;5.57;;;2.10;;
7501;SDS011;3792;47.740;7.606;2023-07-31T01:41:51;4.53;;;2.30;;
7501;SDS011;3792;47.740;7.606;2023-07-31T01:44:18;2.70;;;2.00;;
7501;SDS011;3792;47.740;7.606;2023-07-31T01:46:45;4.47;;;2.27;;
7501;SDS011;3792;47.740;7.606;2023-07-31T01:49:12;2.57;;;2.10;;
7501;SDS011;3792;47.740;7.606;2023-07-31T01:51:39;3.00;;;2.20;;
7501;SDS011;3792;47.740;7.606;2023-07-31T01:54:06;3.27;;;1.90;;
7501;SDS011;3792;47.740;7.606;2023-07-31T01:56:33;3.50;;;1.87;;
7501;SDS011;3792;47.740;7.606;2023-07-31T01:59:02;3.37;;;1.80;;
7501;SDS011;3792;47.740;7.606;2023-07-31T02:01:29;2.63;;;1.67;;
7501;SDS011;3792;47.740;7.606;2023-07-31T02:03:56;2.10;;;1.70;;
7501;SDS011;3792;47.740;7.606;2023-07-31T02:06:23;4.07;;;2.00;;
7501;SDS011;3792;47.740;7.606;2023-07-31T02:08:50;1.90;;;1.80;;
7501;SDS011;3792;47.740;7.606;2023-07-31T02:11:17;2.00;;;1.83;;
7501;SDS011;3792;47.740;7.606;2023-07-31T02:13:44;3.73;;;1.87;;
7501;SDS011;3792;47.740;7.606;2023-07-31T02:16:13;2.27;;;1.53;;
7501;SDS011;3792;47.740;7.606;2023-07-31T02:18:40;3.33;;;2.13;;
7501;SDS011;3792;47.740;7.606;2023-07-31T02:21:07;3.47;;;2.10;;
7501;SDS011;3792;47.740;7.606;2023-07-31T02:23:33;5.37;;;1.90;;
7501;SDS011;3792;47.740;7.606;2023-07-31T02:26:00;3.87;;;1.87;;
7501;SDS011;3792;47.740;7.606;2023-07-31T02:28:27;2.97;;;1.73;;
7501;SDS011;3792;47.740;7.606;2023-07-31T02:30:54;3.37;;;1.80;;
7501;SDS011;3792;47.740;7.606;2023-07-31T02:33:23;2.33;;;1.90;;
7501;SDS011;3792;47.740;7.606;2023-07-31T02:35:50;1.77;;;1.67;;
7501;SDS011;3792;47.740;7.606;2023-07-31T02:38:17;2.30;;;1.73;;
7501;SDS011;3792;47.740;7.606;2023-07-31T02:40:44;4.33;;;1.93;;
7501;SDS011;3792;47.740;7.606;2023-07-31T02:43:11;2.37;;;1.63;;
7501;SDS011;3792;47.740;7.606;2023-07-31T02:45:38;4.07;;;1.83;;
7501;SDS011;3792;47.740;7.606;2023-07-31T02:48:05;2.17;;;1.90;;
7501;SDS011;3792;47.740;7.606;2023-07-31T02:50:34;2.13;;;1.93;;
7501;SDS011;3792;47.740;7.606;2023-07-31T02:53:01;3.70;;;1.70;;
7501;SDS011;3792;47.740;7.606;2023-07-31T02:55:28;2.37;;;1.87;;
7501;SDS011;3792;47.740;7.606;2023-07-31T02:57:55;3.70;;;1.93;;
7501;SDS011;3792;47.740;7.606;2023-07-31T03:00:23;2.47;;;1.80;;
7501;SDS011;3792;47.740;7.606;2023-07-31T03:02:50;2.10;;;1.70;;
7501;SDS011;3792;47.740;7.606;2023-07-31T03:05:17;3.93;;;1.80;;
7501;SDS011;3792;47.740;7.606;2023-07-31T03:07:45;2.40;;;1.90;;
7501;SDS011;3792;47.740;7.606;2023-07-31T03:10:12;3.00;;;1.70;;
7501;SDS011;3792;47.740;7.606;2023-07-31T03:12:40;2.97;;;1.90;;
7501;SDS011;3792;47.740;7.606;2023-07-31T03:15:07;3.27;;;2.07;;
7501;SDS011;3792;47.740;7.606;2023-07-31T03:17:35;4.70;;;1.90;;
7501;SDS011;3792;47.740;7.606;2023-07-31T03:20:02;3.40;;;1.87;;
7501;SDS011;3792;47.740;7.606;2023-07-31T03:22:30;3.30;;;1.80;;
7501;SDS011;3792;47.740;7.606;2023-07-31T03:24:58;2.37;;;1.77;;
7501;SDS011;3792;47.740;7.606;2023-07-31T03:27:26;2.57;;;1.67;;
7501;SDS011;3792;47.740;7.606;2023-07-31T03:29:53;2.50;;;1.70;;
7501;SDS011;3792;47.740;7.606;2023-07-31T03:32:20;2.33;;;1.67;;
7501;SDS011;3792;47.740;7.606;2023-07-31T03:34:47;1.97;;;1.77;;
7501;SDS011;3792;47.740;7.606;2023-07-31T03:37:14;2.83;;;1.70;;
7501;SDS011;3792;47.740;7.606;2023-07-31T03:39:41;3.90;;;1.93;;
7501;SDS011;3792;47.740;7.606;2023-07-31T03:42:09;3.53;;;1.80;;
7501;SDS011;3792;47.740;7.606;2023-07-31T03:44:36;3.60;;;1.80;;
7501;SDS011;3792;47.740;7.606;2023-07-31T03:47:04;1.63;;;1.30;;
7501;SDS011;3792;47.740;7.606;2023-07-31T03:49:31;4.43;;;1.93;;
7501;SDS011;3792;47.740;7.606;2023-07-31T03:51:58;2.87;;;1.70;;
7501;SDS011;3792;47.740;7.606;2023-07-31T03:54:25;4.17;;;2.00;;
7501;SDS011;3792;47.740;7.606;2023-07-31T03:56:52;3.63;;;2.07;;
7501;SDS011;3792;47.740;7.606;2023-07-31T03:59:21;2.40;;;1.70;;
7501;SDS011;3792;47.740;7.606;2023-07-31T04:01:48;3.17;;;1.83;;
7501;SDS011;3792;47.740;7.606;2023-07-31T04:04:15;2.63;;;1.77;;
7501;SDS011;3792;47.740;7.606;2023-07-31T04:06:42;6.77;;;2.00;;
7501;SDS011;3792;47.740;7.606;2023-07-31T04:09:09;2.90;;;1.83;;
7501;SDS011;3792;47.740;7.606;2023-07-31T04:11:36;3.47;;;1.90;;
7501;SDS011;3792;47.740;7.606;2023-07-31T04:14:04;3.17;;;2.10;;
7501;SDS011;3792;47.740;7.606;2023-07-31T04:16:32;4.60;;;2.17;;
7501;SDS011;3792;47.740;7.606;2023-07-31T04:18:59;2.50;;;1.67;;
7501;SDS011;3792;47.740;7.606;2023-07-31T04:21:27;1.60;;;1.50;;
7501;SDS011;3792;47.740;7.606;2023-07-31T04:23:54;3.23;;;2.00;;
7501;SDS011;3792;47.740;7.606;2023-07-31T04:26:23;3.60;;;2.13;;
7501;SDS011;3792;47.740;7.606;2023-07-31T04:28:50;4.40;;;2.00;;
7501;SDS011;3792;47.740;7.606;2023-07-31T04:31:17;2.77;;;1.80;;
7501;SDS011;3792;47.740;7.606;2023-07-31T04:33:46;6.90;;;2.03;;
7501;SDS011;3792;47.740;7.606;2023-07-31T04:36:13;3.50;;;1.80;;
7501;SDS011;3792;47.740;7.606;2023-07-31T04:38:40;2.20;;;1.87;;
7501;SDS011;3792;47.740;7.606;2023-07-31T04:41:07;4.17;;;2.27;;
7501;SDS011;3792;47.740;7.606;2023-07-31T04:43:34;2.30;;;1.70;;
7501;SDS011;3792;47.740;7.606;2023-07-31T04:46:04;4.87;;;2.03;;
7501;SDS011;3792;47.740;7.606;2023-07-31T04:48:31;3.10;;;2.03;;
7501;SDS011;3792;47.740;7.606;2023-07-31T04:50:59;4.43;;;2.00;;
7501;SDS011;3792;47.740;7.606;2023-07-31T04:53:26;1.90;;;1.70;;
7501;SDS011;3792;47.740;7.606;2023-07-31T04:55:54;2.87;;;2.00;;
7501;SDS011;3792;47.740;7.606;2023-07-31T04:58:21;3.93;;;1.97;;
7501;SDS011;3792;47.740;7.606;2023-07-31T05:00:48;2.37;;;2.00;;
7501;SDS011;3792;47.740;7.606;2023-07-31T05:03:15;2.67;;;1.90;;
7501;SDS011;3792;47.740;7.606;2023-07-31T05:05:42;4.57;;;2.13;;
7501;SDS011;3792;47.740;7.606;2023-07-31T05:08:10;4.60;;;2.10;;
7501;SDS011;3792;47.740;7.606;2023-07-31T05:10:37;3.97;;;2.00;;
7501;SDS011;3792;47.740;7.606;2023-07-31T05:13:04;5.10;;;2.23;;
7501;SDS011;3792;47.740;7.606;2023-07-31T05:15:31;3.83;;;1.93;;
7501;SDS011;3792;47.740;7.606;2023-07-31T05:17:58;2.77;;;1.97;;
7501;SDS011;3792;47.740;7.606;2023-07-31T05:20:25;2.73;;;1.80;;
7501;SDS011;3792;47.740;7.606;2023-07-31T05:22:53;4.40;;;1.73;;
7501;SDS011;3792;47.740;7.606;2023-07-31T05:25:21;4.60;;;1.97;;
7501;SDS011;3792;47.740;7.606;2023-07-31T05:27:48;2.33;;;1.60;;
7501;SDS011;3792;47.740;7.606;2023-07-31T05:30:15;3.30;;;2.13;;
7501;SDS011;3792;47.740;7.606;2023-07-31T05:32:42;2.50;;;1.80;;
7501;SDS011;3792;47.740;7.606;2023-07-31T05:35:10;3.67;;;2.10;;
7501;SDS011;3792;47.740;7.606;2023-07-31T05:37:37;4.23;;;1.70;;
7501;SDS011;3792;47.740;7.606;2023-07-31T05:40:04;3.80;;;1.90;;
7501;SDS011;3792;47.740;7.606;2023-07-31T05:42:33;2.50;;;1.80;;
7501;SDS011;3792;47.740;7.606;2023-07-31T05:45:03;2.97;;;2.03;;
7501;SDS011;3792;47.740;7.606;2023-07-31T05:47:31;5.33;;;2.33;;
7501;SDS011;3792;47.740;7.606;2023-07-31T05:49:58;4.57;;;1.97;;
7501;SDS011;3792;47.740;7.606;2023-07-31T05:52:25;4.30;;;2.00;;
7501;SDS011;3792;47.740;7.606;2023-07-31T05:54:54;3.50;;;2.00;;
7501;SDS011;3792;47.740;7.606;2023-07-31T05:57:21;3.73;;;1.90;;
7501;SDS011;3792;47.740;7.606;2023-07-31T05:59:49;5.47;;;2.10;;
7501;SDS011;3792;47.740;7.606;2023-07-31T06:02:18;3.17;;;1.93;;
7501;SDS011;3792;47.740;7.606;2023-07-31T06:04:45;4.33;;;1.90;;
7501;SDS011;3792;47.740;7.606;2023-07-31T06:07:12;6.47;;;2.13;;
7501;SDS011;3792;47.740;7.606;2023-07-31T06:09:39;3.87;;;2.20;;
7501;SDS011;3792;47.740;7.606;2023-07-31T06:12:06;4.33;;;1.97;;
7501;SDS011;3792;47.740;7.606;2023-07-31T06:14:34;5.03;;;2.23;;
7501;SDS011;3792;47.740;7.606;2023-07-31T06:17:02;3.40;;;2.03;;
7501;SDS011;3792;47.740;7.606;2023-07-31T06:19:29;3.87;;;2.10;;
7501;SDS011;3792;47.740;7.606;2023-07-31T06:21:56;4.17;;;2.00;;
7501;SDS011;3792;47.740;7.606;2023-07-31T06:24:23;3.93;;;2.20;;
7501;SDS011;3792;47.740;7.606;2023-07-31T06:26:50;4.93;;;1.90;;
7501;SDS011;3792;47.740;7.606;2023-07-31T06:29:17;5.17;;;1.87;;
7501;SDS011;3792;47.740;7.606;2023-07-31T06:31:44;5.13;;;2.40;;
7501;SDS011;3792;47.740;7.606;2023-07-31T06:34:13;4.57;;;1.80;;
7501;SDS011;3792;47.740;7.606;2023-07-31T06:36:40;6.23;;;2.03;;
7501;SDS011;3792;47.740;7.606;2023-07-31T06:39:07;4.50;;;2.30;;
7501;SDS011;3792;47.740;7.606;2023-07-31T06:41:34;3.00;;;2.07;;
7501;SDS011;3792;47.740;7.606;2023-07-31T06:44:01;4.77;;;1.93;;
7501;SDS011;3792;47.740;7.606;2023-07-31T06:46:28;3.87;;;1.90;;
7501;SDS011;3792;47.740;7.606;2023-07-31T06:48:55;2.47;;;1.63;;
7501;SDS011;3792;47.740;7.606;2023-07-31T06:51:23;4.10;;;2.10;;
7501;SDS011;3792;47.740;7.606;2023-07-31T06:53:50;5.33;;;2.20;;
7501;SDS011;3792;47.740;7.606;2023-07-31T06:56:17;6.67;;;2.20;;
7501;SDS011;3792;47.740;7.606;2023-07-31T06:58:44;5.90;;;2.20;;
7501;SDS011;3792;47.740;7.606;2023-07-31T07:01:11;4.40;;;2.10;;
7501;SDS011;3792;47.740;7.606;2023-07-31T07:03:38;3.33;;;2.27;;
7501;SDS011;3792;47.740;7.606;2023-07-31T07:06:05;6.07;;;2.10;;
7501;SDS011;3792;47.740;7.606;2023-07-31T07:08:34;3.50;;;2.33;;
7501;SDS011;3792;47.740;7.606;2023-07-31T07:11:01;4.70;;;2.07;;
7501;SDS011;3792;47.740;7.606;2023-07-31T07:13:28;4.13;;;2.00;;
7501;SDS011;3792;47.740;7.606;2023-07-31T07:15:55;3.10;;;1.70;;
7501;SDS011;3792;47.740;7.606;2023-07-31T07:18:22;4.10;;;1.87;;
7501;SDS011;3792;47.740;7.606;2023-07-31T07:20:50;5.40;;;1.73;;
7501;SDS011;3792;47.740;7.606;2023-07-31T07:23:18;3.53;;;1.80;;
7501;SDS011;3792;47.740;7.606;2023-07-31T07:25:47;3.10;;;2.07;;
7501;SDS011;3792;47.740;7.606;2023-07-31T07:28:14;3.20;;;1.83;;
7501;SDS011;3792;47.740;7.606;2023-07-31T07:30:41;3.93;;;1.70;;
7501;SDS011;3792;47.740;7.606;2023-07-31T07:33:08;3.93;;;1.63;;
7501;SDS011;3792;47.740;7.606;2023-07-31T07:35:35;6.13;;;2.00;;
7501;SDS011;3792;47.740;7.606;2023-07-31T07:38:03;2.67;;;1.80;;
7501;SDS011;3792;47.740;7.606;2023-07-31T07:40:30;4.53;;;1.90;;
7501;SDS011;3792;47.740;7.606;2023-07-31T07:42:58;2.00;;;1.80;;
7501;SDS011;3792;47.740;7.606;2023-07-31T07:45:25;2.87;;;2.03;;
7501;SDS011;3792;47.740;7.606;2023-07-31T07:47:52;3.50;;;1.63;;
7501;SDS011;3792;47.740;7.606;2023-07-31T07:50:20;2.30;;;1.77;;
7501;SDS011;3792;47.740;7.606;2023-07-31T07:52:47;4.40;;;1.90;;
7501;SDS011;3792;47.740;7.606;2023-07-31T07:55:14;3.07;;;1.90;;
7501;SDS011;3792;47.740;7.606;2023-07-31T07:57:41;5.63;;;1.90;;
7501;SDS011;3792;47.740;7.606;2023-07-31T08:00:11;3.23;;;2.00;;
7501;SDS011;3792;47.740;7.606;2023-07-31T08:02:39;3.07;;;1.80;;
7501;SDS011;3792;47.740;7.606;2023-07-31T08:05:06;3.93;;;1.80;;
7501;SDS011;3792;47.740;7.606;2023-07-31T08:07:34;3.77;;;2.17;;
7501;SDS011;3792;47.740;7.606;2023-07-31T08:10:01;4.43;;;2.10;;
7501;SDS011;3792;47.740;7.606;2023-07-31T08:12:28;3.70;;;2.33;;
7501;SDS011;3792;47.740;7.606;2023-07-31T08:14:55;4.73;;;2.10;;
7501;SDS011;3792;47.740;7.606;2023-07-31T08:17:23;3.07;;;1.87;;
7501;SDS011;3792;47.740;7.606;2023-07-31T08:19:50;8.03;;;2.17;;
7501;SDS011;3792;47.740;7.606;2023-07-31T08:22:17;4.40;;;2.00;;
7501;SDS011;3792;47.740;7.606;2023-07-31T08:24:44;3.17;;;1.70;;
7501;SDS011;3792;47.740;7.606;2023-07-31T08:27:11;2.93;;;1.43;;
7501;SDS011;3792;47.740;7.606;2023-07-31T08:29:38;5.77;;;2.10;;
7501;SDS011;3792;47.740;7.606;2023-07-31T08:32:06;2.77;;;1.60;;
7501;SDS011;3792;47.740;7.606;2023-07-31T08:34:34;2.80;;;1.87;;
7501;SDS011;3792;47.740;7.606;2023-07-31T08:37:01;4.63;;;1.70;;
7501;SDS011;3792;47.740;7.606;2023-07-31T08:39:28;4.03;;;1.83;;
7501;SDS011;3792;47.740;7.606;2023-07-31T08:41:57;3.63;;;1.70;;
7501;SDS011;3792;47.740;7.606;2023-07-31T08:44:25;3.83;;;2.00;;
7501;SDS011;3792;47.740;7.606;2023-07-31T08:46:52;4.77;;;2.20;;
7501;SDS011;3792;47.740;7.606;2023-07-31T08:49:20;4.37;;;1.83;;
7501;SDS011;3792;47.740;7.606;2023-07-31T08:51:51;2.57;;;1.80;;
7501;SDS011;3792;47.740;7.606;2023-07-31T08:54:20;5.43;;;2.10;;
7501;SDS011;3792;47.740;7.606;2023-07-31T08:56:47;5.90;;;2.20;;
7501;SDS011;3792;47.740;7.606;2023-07-31T08:59:16;4.30;;;2.10;;
7501;SDS011;3792;47.740;7.606;2023-07-31T09:01:46;5.37;;;2.23;;
7501;SDS011;3792;47.740;7.606;2023-07-31T09:04:16;3.13;;;1.77;;
7501;SDS011;3792;47.740;7.606;2023-07-31T09:06:46;3.80;;;2.10;;
7501;SDS011;3792;47.740;7.606;2023-07-31T09:09:16;5.13;;;2.07;;
7501;SDS011;3792;47.740;7.606;2023-07-31T09:11:44;7.47;;;2.30;;
7501;SDS011;3792;47.740;7.606;2023-07-31T09:14:11;3.97;;;1.70;;
7501;SDS011;3792;47.740;7.606;2023-07-31T09:16:51;3.47;;;2.30;;
7501;SDS011;3792;47.740;7.606;2023-07-31T09:19:24;4.93;;;1.97;;
7501;SDS011;3792;47.740;7.606;2023-07-31T09:21:53;2.73;;;1.90;;
7501;SDS011;3792;47.740;7.606;2023-07-31T09:24:28;3.53;;;2.23;;
7501;SDS011;3792;47.740;7.606;2023-07-31T09:26:56;4.63;;;2.40;;
7501;SDS011;3792;47.740;7.606;2023-07-31T09:29:24;5.70;;;2.30;;
7501;SDS011;3792;47.740;7.606;2023-07-31T09:31:53;4.83;;;2.00;;
7501;SDS011;3792;47.740;7.606;2023-07-31T09:34:20;4.47;;;1.87;;
7501;SDS011;3792;47.740;7.606;2023-07-31T09:36:57;5.60;;;2.20;;
7501;SDS011;3792;47.740;7.606;2023-07-31T09:39:29;3.67;;;1.97;;
7501;SDS011;3792;47.740;7.606;2023-07-31T09:41:56;5.27;;;2.00;;
7501;SDS011;3792;47.740;7.606;2023-07-31T09:44:32;4.23;;;1.97;;
7501;SDS011;3792;47.740;7.606;2023-07-31T09:47:04;4.50;;;2.00;;
7501;SDS011;3792;47.740;7.606;2023-07-31T09:49:31;3.97;;;2.00;;
7501;SDS011;3792;47.740;7.606;2023-07-31T09:51:58;5.60;;;2.10;;
7501;SDS011;3792;47.740;7.606;2023-07-31T09:54:26;6.13;;;2.03;;
7501;SDS011;3792;47.740;7.606;2023-07-31T09:56:54;4.40;;;2.17;;
7501;SDS011;3792;47.740;7.606;2023-07-31T09:59:23;3.87;;;2.17;;
7501;SDS011;3792;47.740;7.606;2023-07-31T10:01:50;3.13;;;1.97;;
7501;SDS011;3792;47.740;7.606;2023-07-31T10:04:20;5.87;;;2.23;;
7501;SDS011;3792;47.740;7.606;2023-07-31T10:06:50;4.93;;;2.00;;
7501;SDS011;3792;47.740;7.606;2023-07-31T10:09:20;6.00;;;2.60;;
7501;SDS011;3792;47.740;7.606;2023-07-31T10:11:52;4.97;;;1.93;;
7501;SDS011;3792;47.740;7.606;2023-07-31T10:14:22;6.10;;;1.90;;
7501;SDS011;3792;47.740;7.606;2023-07-31T10:16:52;5.43;;;2.27;;
7501;SDS011;3792;47.740;7.606;2023-07-31T10:19:19;4.87;;;2.43;;
7501;SDS011;3792;47.740;7.606;2023-07-31T10:21:48;3.63;;;2.03;;
7501;SDS011;3792;47.740;7.606;2023-07-31T10:24:15;3.60;;;2.00;;
7501;SDS011;3792;47.740;7.606;2023-07-31T10:26:43;4.63;;;2.43;;
7501;SDS011;3792;47.740;7.606;2023-07-31T10:29:14;4.40;;;2.03;;
7501;SDS011;3792;47.740;7.606;2023-07-31T10:31:42;3.03;;;2.07;;
7501;SDS011;3792;47.740;7.606;2023-07-31T10:34:10;4.63;;;2.37;;
7501;SDS011;3792;47.740;7.606;2023-07-31T10:36:37;6.07;;;2.40;;
7501;SDS011;3792;47.740;7.606;2023-07-31T10:39:05;3.77;;;2.30;;
7501;SDS011;3792;47.740;7.606;2023-07-31T10:42:09;4.47;;;2.07;;
7501;SDS011;3792;47.740;7.606;2023-07-31T10:44:38;3.63;;;2.03;;
7501;SDS011;3792;47.740;7.606;2023-07-31T10:47:10;5.00;;;2.60;;
7501;SDS011;3792;47.740;7.606;2023-07-31T10:49:44;3.20;;;1.80;;
7501;SDS011;3792;47.740;7.606;2023-07-31T10:52:12;4.27;;;2.10;;
7501;SDS011;3792;47.740;7.606;2023-07-31T10:54:40;4.60;;;2.27;;
7501;SDS011;3792;47.740;7.606;2023-07-31T10:57:18;3.73;;;2.27;;
7501;SDS011;3792;47.740;7.606;2023-07-31T10:59:48;2.90;;;2.23;;
7501;SDS011;3792;47.740;7.606;2023-07-31T11:02:25;4.87;;;2.07;;
7501;SDS011;3792;47.740;7.606;2023-07-31T11:05:06;3.37;;;2.20;;
7501;SDS011;3792;47.740;7.606;2023-07-31T11:10:16;2.90;;;2.23;;
7501;SDS011;3792;47.740;7.606;2023-07-31T11:12:44;5.43;;;2.40;;
7501;SDS011;3792;47.740;7.606;2023-07-31T11:15:14;4.07;;;2.20;;
7501;SDS011;3792;47.740;7.606;2023-07-31T11:17:41;4.47;;;2.30;;
7501;SDS011;3792;47.740;7.606;2023-07-31T11:20:08;3.73;;;2.30;;
7501;SDS011;3792;47.740;7.606;2023-07-31T11:22:35;4.60;;;2.23;;
7501;SDS011;3792;47.740;7.606;2023-07-31T11:25:03;6.20;;;2.33;;
7501;SDS011;3792;47.740;7.606;2023-07-31T11:27:30;5.47;;;2.40;;
7501;SDS011;3792;47.740;7.606;2023-07-31T11:30:05;4.67;;;2.40;;
7501;SDS011;3792;47.740;7.606;2023-07-31T11:32:36;2.13;;;1.93;;
7501;SDS011;3792;47.740;7.606;2023-07-31T11:35:03;3.87;;;1.90;;
7501;SDS011;3792;47.740;7.606;2023-07-31T11:37:39;4.10;;;2.30;;
7501;SDS011;3792;47.740;7.606;2023-07-31T11:40:07;3.10;;;2.30;;
7501;SDS011;3792;47.740;7.606;2023-07-31T11:42:36;3.37;;;2.00;;
7501;SDS011;3792;47.740;7.606;2023-07-31T11:45:03;5.30;;;2.70;;
7501;SDS011;3792;47.740;7.606;2023-07-31T11:47:32;3.33;;;2.50;;
7501;SDS011;3792;47.740;7.606;2023-07-31T11:50:01;3.80;;;2.30;;
7501;SDS011;3792;47.740;7.606;2023-07-31T11:52:29;4.30;;;2.37;;
7501;SDS011;3792;47.740;7.606;2023-07-31T11:54:58;3.80;;;2.40;;
7501;SDS011;3792;47.740;7.606;2023-07-31T11:57:25;6.57;;;2.80;;
7501;SDS011;3792;47.740;7.606;2023-07-31T11:59:54;5.53;;;2.17;;
7501;SDS011;3792;47.740;7.606;2023-07-31T12:02:21;7.13;;;2.30;;
7501;SDS011;3792;47.740;7.606;2023-07-31T12:04:50;4.33;;;2.30;;
7501;SDS011;3792;47.740;7.606;2023-07-31T12:07:17;5.60;;;2.47;;
7501;SDS011;3792;47.740;7.606;2023-07-31T12:09:51;4.63;;;2.33;;
7501;SDS011;3792;47.740;7.606;2023-07-31T12:12:22;3.70;;;2.27;;
7501;SDS011;3792;47.740;7.606;2023-07-31T12:14:49;5.00;;;2.60;;
7501;SDS011;3792;47.740;7.606;2023-07-31T12:17:17;5.03;;;2.43;;
7501;SDS011;3792;47.740;7.606;2023-07-31T12:19:46;3.10;;;2.30;;
7501;SDS011;3792;47.740;7.606;2023-07-31T12:22:16;4.23;;;2.30;;
7501;SDS011;3792;47.740;7.606;2023-07-31T12:24:44;3.70;;;2.50;;
7501;SDS011;3792;47.740;7.606;2023-07-31T12:27:11;5.03;;;2.53;;
7501;SDS011;3792;47.740;7.606;2023-07-31T12:29:39;5.63;;;2.30;;
7501;SDS011;3792;47.740;7.606;2023-07-31T12:32:20;4.30;;;2.53;;
7501;SDS011;3792;47.740;7.606;2023-07-31T12:34:49;3.73;;;2.47;;
7501;SDS011;3792;47.740;7.606;2023-07-31T12:37:17;3.77;;;2.20;;
7501;SDS011;3792;47.740;7.606;2023-07-31T12:39:44;6.03;;;2.30;;
7501;SDS011;3792;47.740;7.606;2023-07-31T12:42:12;4.47;;;2.60;;
7501;SDS011;3792;47.740;7.606;2023-07-31T12:44:39;4.37;;;2.27;;
7501;SDS011;3792;47.740;7.606;2023-07-31T12:47:06;5.10;;;2.43;;
7501;SDS011;3792;47.740;7.606;2023-07-31T12:49:33;5.33;;;2.77;;
7501;SDS011;3792;47.740;7.606;2023-07-31T12:52:00;4.03;;;2.17;;
7501;SDS011;3792;47.740;7.606;2023-07-31T12:54:28;4.47;;;2.60;;
7501;SDS011;3792;47.740;7.606;2023-07-31T12:56:55;3.83;;;2.30;;
7501;SDS011;3792;47.740;7.606;2023-07-31T12:59:22;3.97;;;2.40;;
7501;SDS011;3792;47.740;7.606;2023-07-31T13:01:49;3.63;;;2.43;;
7501;SDS011;3792;47.740;7.606;2023-07-31T13:04:16;5.33;;;2.90;;
7501;SDS011;3792;47.740;7.606;2023-07-31T13:06:43;4.00;;;2.63;;
7501;SDS011;3792;47.740;7.606;2023-07-31T13:09:10;3.97;;;2.27;;
7501;SDS011;3792;47.740;7.606;2023-07-31T13:11:39;5.57;;;2.60;;
7501;SDS011;3792;47.740;7.606;2023-07-31T13:14:06;3.97;;;2.47;;
7501;SDS011;3792;47.740;7.606;2023-07-31T13:16:33;4.40;;;2.87;;
7501;SDS011;3792;47.740;7.606;2023-07-31T13:19:00;4.23;;;2.50;;
7501;SDS011;3792;47.740;7.606;2023-07-31T13:21:27;4.63;;;2.87;;
7501;SDS011;3792;47.740;7.606;2023-07-31T13:23:54;5.47;;;2.30;;
7501;SDS011;3792;47.740;7.606;2023-07-31T13:26:23;7.43;;;2.90;;
7501;SDS011;3792;47.740;7.606;2023-07-31T13:28:51;4.80;;;2.90;;
7501;SDS011;3792;47.740;7.606;2023-07-31T13:31:18;4.37;;;2.50;;
7501;SDS011;3792;47.740;7.606;2023-07-31T13:33:45;6.77;;;3.20;;
7501;SDS011;3792;47.740;7.606;2023-07-31T13:36:12;3.40;;;2.70;;
7501;SDS011;3792;47.740;7.606;2023-07-31T13:38:39;5.23;;;2.87;;
7501;SDS011;3792;47.740;7.606;2023-07-31T13:41:06;3.27;;;2.40;;
7501;SDS011;3792;47.740;7.606;2023-07-31T13:43:33;4.83;;;2.77;;
7501;SDS011;3792;47.740;7.606;2023-07-31T13:46:02;5.00;;;2.60;;
7501;SDS011;3792;47.740;7.606;2023-07-31T13:48:31;4.13;;;2.73;;
7501;SDS011;3792;47.740;7.606;2023-07-31T13:50:59;3.97;;;2.90;;
7501;SDS011;3792;47.740;7.606;2023-07-31T13:53:26;4.43;;;2.87;;
7501;SDS011;3792;47.740;7.606;2023-07-31T13:55:53;5.63;;;3.27;;
7501;SDS011;3792;47.740;7.606;2023-07-31T13:58:20;4.90;;;2.90;;
7501;SDS011;3792;47.740;7.606;2023-07-31T14:00:48;4.07;;;2.90;;
7501;SDS011;3792;47.740;7.606;2023-07-31T14:03:16;4.27;;;2.83;;
7501;SDS011;3792;47.740;7.606;2023-07-31T14:05:43;3.90;;;3.07;;
7501;SDS011;3792;47.740;7.606;2023-07-31T14:08:10;4.43;;;2.80;;
7501;SDS011;3792;47.740;7.606;2023-07-31T14:10:37;3.20;;;2.40;;
7501;SDS011;3792;47.740;7.606;2023-07-31T14:13:04;5.33;;;2.60;;
7501;SDS011;3792;47.740;7.606;2023-07-31T14:15:31;4.40;;;2.87;;
7501;SDS011;3792;47.740;7.606;2023-07-31T14:18:00;3.33;;;3.03;;
7501;SDS011;3792;47.740;7.606;2023-07-31T14:20:29;3.13;;;2.60;;
7501;SDS011;3792;47.740;7.606;2023-07-31T14:22:56;3.97;;;2.90;;
7501;SDS011;3792;47.740;7.606;2023-07-31T14:25:24;5.37;;;3.07;;
7501;SDS011;3792;47.740;7.606;2023-07-31T14:27:51;4.93;;;2.70;;
7501;SDS011;3792;47.740;7.606;2023-07-31T14:30:18;4.93;;;3.13;;
7501;SDS011;3792;47.740;7.606;2023-07-31T14:32:45;4.40;;;2.70;;
7501;SDS011;3792;47.740;7.606;2023-07-31T14:35:12;3.97;;;3.10;;
7501;SDS011;3792;47.740;7.606;2023-07-31T14:37:41;3.13;;;2.67;;
7501;SDS011;3792;47.740;7.606;2023-07-31T14:40:10;3.53;;;2.73;;
7501;SDS011;3792;47.740;7.606;2023-07-31T14:42:38;4.77;;;2.77;;
7501;SDS011;3792;47.740;7.606;2023-07-31T14:45:06;5.47;;;3.00;;
7501;SDS011;3792;47.740;7.606;2023-07-31T14:47:35;3.77;;;2.57;;
7501;SDS011;3792;47.740;7.606;2023-07-31T14:50:02;7.63;;;3.03;;
7501;SDS011;3792;47.740;7.606;2023-07-31T14:52:30;6.60;;;2.57;;
7501;SDS011;3792;47.740;7.606;2023-07-31T14:54:58;4.27;;;2.60;;
7501;SDS011;3792;47.740;7.606;2023-07-31T14:57:25;5.27;;;2.70;;
7501;SDS011;3792;47.740;7.606;2023-07-31T14:59:52;6.20;;;2.97;;
7501;SDS011;3792;47.740;7.606;2023-07-31T15:02:19;4.20;;;2.40;;
7501;SDS011;3792;47.740;7.606;2023-07-31T15:04:46;3.37;;;2.53;;
7501;SDS011;3792;47.740;7.606;2023-07-31T15:07:13;3.07;;;2.60;;
7501;SDS011;3792;47.740;7.606;2023-07-31T15:09:40;3.47;;;2.40;;
7501;SDS011;3792;47.740;7.606;2023-07-31T15:12:09;4.27;;;2.43;;
7501;SDS011;3792;47.740;7.606;2023-07-31T15:14:36;3.47;;;2.67;;
7501;SDS011;3792;47.740;7.606;2023-07-31T15:17:03;5.50;;;2.47;;
7501;SDS011;3792;47.740;7.606;2023-07-31T15:19:30;4.63;;;2.43;;
7501;SDS011;3792;47.740;7.606;2023-07-31T15:22:00;3.63;;;2.50;;
7501;SDS011;3792;47.740;7.606;2023-07-31T15:24:27;4.13;;;2.60;;